Time;durP1;ratioP1;P1;durP2;ratioP2;P2;SDS_P1;SDS_P2;PMS_P1;PMS_P2;Temp;Humidity;BMP_temperature;BMP_pressure;BME280_temperature;BME280_humidity;BME280_pressure;Samples;Min_cycle;Max_cycle;Signal;HPM_P1;HPM_P2
2022/07/20 00:00:14;;;;;;;7.47;3.33;;;;;;;29.98;48.41;101055.00;5076476;28;20041;-52
2022/07/20 00:02:39;;;;;;;12.30;3.63;;;;;;;29.97;48.94;101064.41;5080302;28;20040;-50
2022/07/20 00:05:06;;;;;;;6.37;3.30;;;;;;;29.81;49.13;101066.84;5076143;28;20062;-53
2022/07/20 00:07:32;;;;;;;8.03;3.73;;;;;;;29.82;49.07;101068.47;5074297;28;20029;-47
2022/07/20 00:12:42;;;;;;;16.57;3.97;;;;;;;29.62;49.11;101061.59;5073706;28;20049;-50
2022/07/20 00:15:07;;;;;;;9.40;4.17;;;;;;;29.64;50.50;101055.78;5080063;28;20063;-51
2022/07/20 00:17:33;;;;;;;8.57;3.70;;;;;;;29.62;49.56;101061.59;5075441;28;20037;-51
2022/07/20 00:19:59;;;;;;;9.17;3.83;;;;;;;29.62;49.82;101054.16;5076912;28;20047;-48
2022/07/20 00:22:24;;;;;;;12.73;4.20;;;;;;;29.51;51.58;101060.28;5074793;28;20029;-50
2022/07/20 00:24:50;;;;;;;9.20;4.00;;;;;;;29.38;51.32;101057.28;5077169;28;20085;-50
2022/07/20 00:27:16;;;;;;;8.87;3.83;;;;;;;29.45;52.24;101065.09;5074897;28;20028;-53
2022/07/20 00:29:41;;;;;;;10.83;4.60;;;;;;;29.27;54.08;101053.19;5076737;28;20041;-55
2022/07/20 00:32:06;;;;;;;;;;;;;;;29.34;52.19;101065.38;5075297;28;20039;-48
2022/07/20 00:34:32;;;;;;;12.90;4.20;;;;;;;29.25;53.41;101058.22;5081635;28;19916;-51
2022/07/20 00:36:57;;;;;;;10.97;3.93;;;;;;;29.16;54.24;101058.97;5077658;28;20059;-47
2022/07/20 00:39:23;;;;;;;16.60;4.17;;;;;;;29.14;54.85;101050.22;5080605;28;20041;-52
2022/07/20 00:41:49;;;;;;;14.50;4.60;;;;;;;29.11;55.51;101056.38;5073680;28;20056;-47
2022/07/20 00:44:15;;;;;;;8.93;3.80;;;;;;;29.18;55.11;101053.97;5078109;28;20057;-54
2022/07/20 00:46:44;;;;;;;8.83;3.93;;;;;;;29.12;55.55;101046.19;5080637;28;20033;-51
2022/07/20 00:49:12;;;;;;;10.27;4.13;;;;;;;29.21;57.16;101054.47;5073744;28;20028;-50
2022/07/20 00:51:42;;;;;;;8.77;3.57;;;;;;;29.26;56.77;101049.63;5073280;28;20036;-54
2022/07/20 00:54:08;;;;;;;13.93;4.30;;;;;;;29.32;57.22;101048.38;5072933;28;20037;-55
2022/07/20 00:56:35;;;;;;;9.47;3.80;;;;;;;29.32;57.08;101050.28;5077437;28;20071;-51
2022/07/20 00:59:02;;;;;;;7.73;3.60;;;;;;;29.09;56.90;101052.31;5087958;28;20087;-53
2022/07/20 01:01:27;;;;;;;12.37;5.00;;;;;;;29.07;57.82;101049.88;5078931;28;20060;-55
2022/07/20 01:03:53;;;;;;;;;;;;;;;28.75;59.02;101060.84;5077398;28;20029;-54
2022/07/20 01:06:19;;;;;;;10.50;4.03;;;;;;;28.83;60.00;101061.22;5076317;28;19913;-53
2022/07/20 01:08:48;;;;;;;9.83;4.10;;;;;;;28.83;61.19;101077.75;5073628;28;20052;-55
2022/07/20 01:11:13;;;;;;;16.97;4.27;;;;;;;28.42;62.88;101076.78;5072895;28;20029;-53
2022/07/20 01:13:39;;;;;;;;;;;;;;;28.60;61.91;101064.78;5075188;28;20091;-55
2022/07/20 01:16:04;;;;;;;11.37;4.17;;;;;;;28.84;61.77;101069.19;5073906;28;19913;-54
2022/07/20 01:18:30;;;;;;;;;;;;;;;28.69;62.04;101072.28;5073491;28;20044;-54
2022/07/20 01:20:59;;;;;;;11.27;4.30;;;;;;;28.62;65.47;101056.25;5079563;28;19966;-54
2022/07/20 01:23:25;;;;;;;13.17;4.17;;;;;;;28.67;67.70;101061.59;5076765;28;20100;-48
2022/07/20 01:25:50;;;;;;;;;;;;;;;28.68;67.74;101065.97;5079114;28;20033;-50
2022/07/20 01:28:16;;;;;;;12.20;5.00;;;;;;;28.47;66.41;101077.47;5077054;28;19912;-48
2022/07/20 01:30:42;;;;;;;;;;;;;;;28.43;67.66;101067.41;5077289;28;20056;-50
2022/07/20 01:33:07;;;;;;;10.60;3.97;;;;;;;28.44;68.28;101072.59;5073793;28;19943;-52
2022/07/20 01:35:33;;;;;;;;;;;;;;;28.20;69.27;101081.13;5077754;28;20043;-54
2022/07/20 01:37:58;;;;;;;13.50;4.63;;;;;;;28.13;72.63;101065.03;5083389;28;19912;-54
2022/07/20 01:40:23;;;;;;;;;;;;;;;28.18;73.73;101075.13;5074078;28;20033;-50
2022/07/20 01:42:49;;;;;;;7.97;3.60;;;;;;;28.28;76.41;101074.91;5076216;28;19923;-55
2022/07/20 01:45:16;;;;;;;;;;;;;;;27.90;74.54;101064.97;5073546;28;20064;-53
2022/07/20 01:47:41;;;;;;;11.37;4.83;;;;;;;27.99;74.39;101078.00;5075712;28;19913;-54
2022/07/20 01:50:07;;;;;;;;;;;;;;;28.09;72.20;101079.72;5077338;28;20044;-55
2022/07/20 01:52:33;;;;;;;10.53;4.17;;;;;;;27.98;72.18;101085.44;5081388;28;19943;-52
2022/07/20 01:54:58;;;;;;;;;;;;;;;28.11;72.87;101085.72;5079885;28;20060;-56
2022/07/20 01:57:23;;;;;;;9.50;5.07;;;;;;;28.15;73.61;101071.09;5084283;28;19919;-53
2022/07/20 01:59:49;;;;;;;;;;;;;;;28.02;71.43;101074.63;5078386;28;20096;-55
2022/07/20 02:02:14;;;;;;;15.33;5.27;;;;;;;27.99;75.34;101069.75;5079279;28;19935;-52
2022/07/20 02:04:39;;;;;;;;;;;;;;;28.03;72.60;101068.84;5082452;28;20029;-52
2022/07/20 02:07:05;;;;;;;14.43;4.70;;;;;;;28.15;73.03;101062.84;5082133;28;19913;-52
2022/07/20 02:09:31;;;;;;;;;;;;;;;28.07;75.83;101062.72;5082058;28;20067;-52
2022/07/20 02:11:56;;;;;;;9.60;5.70;;;;;;;28.00;76.75;101060.41;5084783;28;19917;-53
2022/07/20 02:14:22;;;;;;;;;;;;;;;28.05;76.92;101063.03;5083229;28;20032;-54
2022/07/20 02:16:47;;;;;;;15.23;5.10;;;;;;;28.04;75.44;101069.63;5081205;28;19926;-52
2022/07/20 02:19:12;;;;;;;;;;;;;;;27.80;71.47;101069.91;5081460;28;20032;-54
2022/07/20 02:21:38;;;;;;;9.37;5.10;;;;;;;27.67;73.06;101066.03;5078865;28;19943;-51
2022/07/20 02:24:04;;;;;;;;;;;;;;;27.62;74.34;101076.00;5082411;28;20033;-54
2022/07/20 02:26:30;;;;;;;15.43;5.17;;;;;;;27.54;74.22;101075.91;5084556;28;19931;-51
2022/07/20 02:28:56;;;;;;;;;;;;;;;27.24;77.37;101084.41;5082884;28;20037;-55
2022/07/20 02:31:23;;;;;;;15.80;5.47;;;;;;;27.24;76.35;101092.66;5081813;28;19980;-51
2022/07/20 02:33:49;;;;;;;14.63;5.23;;;;;;;27.22;80.82;101088.56;5087173;28;20035;-51
2022/07/20 02:36:15;;;;;;;6.73;5.20;;;;;;;27.15;83.18;101086.22;5083171;28;20103;-51
2022/07/20 02:38:40;;;;;;;;;;;;;;;27.05;81.82;101082.56;5084580;28;20063;-50
2022/07/20 02:41:06;;;;;;;10.93;5.37;;;;;;;26.98;85.74;101090.34;5087830;28;19980;-52
2022/07/20 02:43:32;;;;;;;9.80;4.93;;;;;;;26.87;92.02;101095.22;5079188;28;20057;-50
2022/07/20 02:45:57;;;;;;;;;;;;;;;26.82;93.15;101094.44;5084061;28;20096;-54
2022/07/20 02:48:23;;;;;;;13.03;5.23;;;;;;;26.72;86.69;101095.44;5082915;28;19944;-51
2022/07/20 02:50:49;;;;;;;;;;;;;;;26.81;84.48;101098.31;5086826;28;20045;-53
2022/07/20 02:53:14;;;;;;;9.87;4.37;;;;;;;27.01;83.49;101097.16;5082212;28;19962;-47
2022/07/20 02:55:41;;;;;;;;;;;;;;;26.94;89.84;101099.50;5088766;28;20039;-50
2022/07/20 02:58:06;;;;;;;14.83;6.60;;;;;;;26.92;92.74;101102.53;5083752;28;19920;-55
2022/07/20 03:00:32;;;;;;;;;;;;;;;27.07;96.65;101108.88;5079642;28;20032;-51
2022/07/20 03:02:59;;;;;;;23.15;9.43;;;;;;;26.56;100.00;101108.56;5080161;28;19940;-49
2022/07/20 03:05:24;;;;;;;;;;;;;;;26.59;100.00;101117.00;5084040;28;20040;-51
2022/07/20 03:07:50;;;;;;;26.17;9.77;;;;;;;26.49;100.00;101107.00;5085377;28;19913;-55
2022/07/20 03:10:16;;;;;;;;;;;;;;;26.37;100.00;101106.66;5087180;28;20028;-54
2022/07/20 03:12:41;;;;;;;26.23;12.47;;;;;;;26.37;100.00;101095.69;5084443;28;19944;-54
2022/07/20 03:15:08;;;;;;;24.37;11.23;;;;;;;26.44;100.00;101098.06;5084419;28;20044;-54
2022/07/20 03:17:40;;;;;;;;;;;;;;;26.29;100.00;101102.66;5085220;28;20032;-50
2022/07/20 03:20:06;;;;;;;33.67;13.97;;;;;;;26.15;100.00;101104.44;5087090;28;19916;-53
2022/07/20 03:22:32;;;;;;;;;;;;;;;26.14;100.00;101111.88;5081883;28;20056;-54
2022/07/20 03:24:57;;;;;;;26.97;13.20;;;;;;;26.40;100.00;101108.78;5083338;28;19913;-53
2022/07/20 03:27:23;;;;;;;;;;;;;;;26.38;100.00;101100.06;5088596;28;20021;-54
2022/07/20 03:29:48;;;;;;;40.47;18.47;;;;;;;26.25;100.00;101104.34;5085953;28;19917;-52
2022/07/20 03:32:14;;;;;;;35.03;16.30;;;;;;;26.17;100.00;101110.47;5083420;28;20418;-53
2022/07/20 03:34:39;;;;;;;32.25;16.02;;;;;;;26.31;100.00;101111.38;5088276;28;20076;-51
2022/07/20 03:37:05;;;;;;;37.97;17.95;;;;;;;26.18;100.00;101123.91;5088299;28;20032;-54
2022/07/20 03:39:30;;;;;;;35.78;17.38;;;;;;;25.97;100.00;101117.84;5080190;28;20028;-49
2022/07/20 03:41:56;;;;;;;34.88;16.95;;;;;;;26.13;100.00;101129.41;5079277;28;20091;-52
2022/07/20 03:44:21;;;;;;;37.95;17.48;;;;;;;26.38;100.00;101130.22;5072739;28;20052;-52
2022/07/20 03:46:47;;;;;;;35.33;18.15;;;;;;;26.18;100.00;101134.03;5077896;28;20083;-53
2022/07/20 03:49:12;;;;;;;36.15;18.15;;;;;;;26.28;100.00;101133.06;5076927;28;20029;-54
2022/07/20 03:51:38;;;;;;;37.55;19.70;;;;;;;26.28;100.00;101142.13;5080139;28;20048;-51
2022/07/20 03:54:05;;;;;;;41.60;18.90;;;;;;;25.96;100.00;101154.56;5074915;28;20089;-53
2022/07/20 03:56:30;;;;;;;32.57;19.07;;;;;;;25.87;100.00;101154.41;5074788;28;20097;-53
2022/07/20 03:58:56;;;;;;;38.53;19.50;;;;;;;25.99;100.00;101147.69;5079245;28;20043;-52
2022/07/20 04:01:21;;;;;;;42.70;21.42;;;;;;;25.98;100.00;101157.00;5075440;28;20067;-54
2022/07/20 04:03:47;;;;;;;37.50;21.35;;;;;;;25.91;100.00;101152.69;5084194;28;20033;-51
2022/07/20 04:06:12;;;;;;;53.78;24.27;;;;;;;25.84;100.00;101151.41;5080425;28;20029;-53
2022/07/20 04:08:38;;;;;;;43.10;23.33;;;;;;;25.87;100.00;101157.16;5074790;28;20097;-53
2022/07/20 04:11:03;;;;;;;45.53;22.52;;;;;;;25.87;100.00;101168.09;5080871;28;20033;-51
2022/07/20 04:13:29;;;;;;;38.88;21.77;;;;;;;26.00;100.00;101173.97;5074359;28;20044;-52
2022/07/20 04:15:54;;;;;;;46.08;24.30;;;;;;;25.65;100.00;101176.81;5081271;28;20107;-55
2022/07/20 04:18:20;;;;;;;46.80;25.15;;;;;;;25.79;100.00;101192.56;5080602;28;20032;-54
2022/07/20 04:20:45;;;;;;;47.45;27.83;;;;;;;25.83;100.00;101199.91;5081664;28;20032;-53
2022/07/20 04:23:14;;;;;;;53.22;26.20;;;;;;;25.77;100.00;101201.06;5074715;28;20056;-53
2022/07/20 04:25:40;;;;;;;52.70;28.20;;;;;;;25.76;100.00;101199.44;5074146;28;20063;-51
2022/07/20 04:28:06;;;;;;;47.28;26.60;;;;;;;26.12;100.00;101212.75;5081261;28;20029;-54
2022/07/20 04:30:33;;;;;;;55.17;27.70;;;;;;;25.62;100.00;101204.78;5078863;28;20059;-53
2022/07/20 04:32:58;;;;;;;44.60;27.23;;;;;;;25.35;100.00;101212.38;5071615;28;20041;-51
2022/07/20 04:35:23;;;;;;;57.33;29.90;;;;;;;25.60;100.00;101226.16;5074168;28;20033;-56
2022/07/20 04:37:49;;;;;;;45.92;27.30;;;;;;;25.87;100.00;101228.38;5086330;28;20036;-54
2022/07/20 04:40:14;;;;;;;61.75;30.05;;;;;;;25.50;100.00;101231.75;5076177;28;20090;-55
2022/07/20 04:42:40;;;;;;;57.58;31.60;;;;;;;25.25;100.00;101228.88;5078620;28;20032;-55
2022/07/20 04:45:06;;;;;;;54.28;30.08;;;;;;;25.34;100.00;101221.69;5076592;28;20029;-53
2022/07/20 04:47:32;;;;;;;59.50;30.30;;;;;;;25.35;100.00;101228.00;5076682;28;20036;-52
2022/07/20 04:49:57;;;;;;;64.05;31.10;;;;;;;25.47;100.00;101224.91;5079003;28;20033;-54
2022/07/20 04:52:23;;;;;;;53.55;30.13;;;;;;;25.47;100.00;101225.72;5079978;28;20043;-55
2022/07/20 04:54:48;;;;;;;57.30;31.83;;;;;;;25.40;100.00;101235.34;5084636;28;20112;-53
2022/07/20 04:57:14;;;;;;;59.83;30.50;;;;;;;25.50;100.00;101246.22;5076563;28;20032;-54
2022/07/20 04:59:39;;;;;;;55.72;30.42;;;;;;;25.52;100.00;101249.50;5073678;28;20068;-56
2022/07/20 05:02:05;;;;;;;49.55;30.13;;;;;;;25.34;100.00;101237.31;5077654;28;20033;-57
2022/07/20 05:04:30;;;;;;;51.00;30.88;;;;;;;25.63;100.00;101236.53;5073562;28;20041;-51
2022/07/20 05:06:56;;;;;;;59.00;32.08;;;;;;;25.61;100.00;101250.53;5076061;28;20032;-54
2022/07/20 05:09:21;;;;;;;52.00;30.90;;;;;;;25.57;100.00;101254.13;5079544;28;20044;-51
2022/07/20 05:11:47;;;;;;;52.33;30.30;;;;;;;25.62;100.00;101254.91;5079765;28;20033;-52
2022/07/20 05:14:12;;;;;;;50.53;29.63;;;;;;;25.65;100.00;101256.22;5075602;28;20032;-53
2022/07/20 05:16:38;;;;;;;54.35;30.73;;;;;;;25.88;100.00;101249.19;5078336;28;20040;-52
2022/07/20 05:19:04;;;;;;;66.47;31.45;;;;;;;25.99;100.00;101255.38;5076095;28;20036;-54
2022/07/20 05:21:30;;;;;;;53.80;30.10;;;;;;;26.01;100.00;101255.88;5077707;28;20041;-50
2022/07/20 05:23:55;;;;;;;56.03;32.40;;;;;;;26.03;100.00;101255.59;5080721;28;20043;-54
2022/07/20 05:26:21;;;;;;;55.28;29.05;;;;;;;25.78;100.00;101249.25;5082247;28;20037;-55
2022/07/20 05:28:47;;;;;;;55.10;30.20;;;;;;;25.90;100.00;101236.00;5077089;28;20041;-52
2022/07/20 05:31:15;;;;;;;51.57;30.10;;;;;;;25.83;100.00;101243.72;5076252;28;20029;-53
2022/07/20 05:33:41;;;;;;;56.77;31.07;;;;;;;26.13;100.00;101236.31;5078240;28;20496;-50
2022/07/20 05:36:08;;;;;;;53.23;28.53;;;;;;;25.84;100.00;101250.88;5077743;28;20088;-55
2022/07/20 05:38:33;;;;;;;;;;;;;;;25.86;100.00;101256.03;5073796;28;20071;-50
2022/07/20 05:40:59;;;;;;;46.53;27.03;;;;;;;26.01;100.00;101249.56;5073102;28;19920;-55
2022/07/20 05:43:24;;;;;;;;;;;;;;;26.17;100.00;101255.72;5076200;28;20045;-50
2022/07/20 05:45:50;;;;;;;48.00;28.17;;;;;;;26.08;100.00;101265.69;5071619;28;19912;-54
2022/07/20 05:48:16;;;;;;;45.72;25.73;;;;;;;25.88;100.00;101284.78;5069977;28;20056;-56
2022/07/20 05:50:43;;;;;;;46.03;26.55;;;;;;;25.70;100.00;101300.00;5068191;28;20033;-53
2022/07/20 05:53:10;;;;;;;43.87;25.63;;;;;;;25.82;100.00;101298.81;5076808;28;20059;-53
2022/07/20 05:55:36;;;;;;;48.30;25.47;;;;;;;26.17;100.00;101303.16;5078722;28;20053;-52
2022/07/20 05:58:03;;;;;;;41.77;24.63;;;;;;;26.23;100.00;101305.84;5074559;28;20028;-52
2022/07/20 06:00:29;;;;;;;45.70;23.97;;;;;;;26.20;100.00;101318.22;5071588;28;20045;-54
2022/07/20 06:02:55;;;;;;;41.20;22.40;;;;;;;26.23;100.00;101322.28;5062524;28;20097;-53
2022/07/20 06:05:20;;;;;;;;;;;;;;;26.47;100.00;101328.59;5071652;28;20045;-53
2022/07/20 06:07:46;;;;;;;34.03;21.90;;;;;;;26.25;100.00;101331.03;5066851;28;19916;-50
2022/07/20 06:10:12;;;;;;;;;;;;;;;26.20;100.00;101329.97;5075730;28;20051;-51
2022/07/20 06:12:37;;;;;;;40.13;18.57;;;;;;;26.19;100.00;101338.50;5069925;28;19916;-53
2022/07/20 06:15:03;;;;;;;;;;;;;;;26.39;100.00;101353.09;5075265;28;20058;-53
2022/07/20 06:17:39;;;;;;;31.53;18.87;;;;;;;26.49;100.00;101350.25;5068143;28;19913;-53
2022/07/20 06:20:13;;;;;;;29.37;17.20;;;;;;;26.68;100.00;101361.25;5077290;28;20059;-53
2022/07/20 06:22:41;;;;;;;26.73;17.13;;;;;;;26.59;100.00;101358.34;5070460;28;20021;-54
2022/07/20 06:25:09;;;;;;;31.83;17.60;;;;;;;26.79;100.00;101375.69;5073885;28;20033;-52
2022/07/20 06:27:35;;;;;;;31.33;16.93;;;;;;;26.83;100.00;101378.66;5072293;28;20032;-56
2022/07/20 06:30:03;;;;;;;27.87;16.63;;;;;;;26.81;100.00;101397.34;5071245;28;20032;-54
2022/07/20 06:32:28;;;;;;;33.57;15.90;;;;;;;26.91;100.00;101391.75;5083812;28;20037;-58
2022/07/20 06:34:53;;;;;;;;;;;;;;;26.88;100.00;101406.88;5080733;28;20067;-52
2022/07/20 06:37:19;;;;;;;37.13;16.40;;;;;;;26.96;100.00;101401.84;5070958;28;19924;-54
2022/07/20 06:39:45;;;;;;;;;;;;;;;27.18;100.00;101418.59;5080125;28;20036;-57
2022/07/20 06:42:11;;;;;;;27.20;14.83;;;;;;;27.29;100.00;101418.44;5078320;28;19912;-54
2022/07/20 06:44:37;;;;;;;;;;;;;;;27.14;100.00;101422.19;5074613;28;20280;-55
2022/07/20 06:47:03;;;;;;;26.77;14.33;;;;;;;27.07;100.00;101421.75;5083403;28;19916;-55
2022/07/20 06:49:29;;;;;;;22.97;12.57;;;;;;;27.28;100.00;101417.63;5077706;28;20037;-53
2022/07/20 06:51:55;;;;;;;26.70;13.53;;;;;;;27.57;100.00;101427.69;5074684;28;20025;-53
2022/07/20 06:54:21;;;;;;;;;;;;;;;27.20;100.00;101423.75;5081145;28;20047;-54
2022/07/20 06:56:46;;;;;;;36.83;15.60;;;;;;;27.26;100.00;101439.06;5079072;28;19944;-57
2022/07/20 06:59:11;;;;;;;;;;;;;;;27.30;100.00;101453.84;5080925;28;20040;-56
2022/07/20 07:01:38;;;;;;;25.90;13.13;;;;;;;26.80;100.00;101453.31;5075751;28;19959;-54
2022/07/20 07:04:04;;;;;;;32.10;12.87;;;;;;;26.62;100.00;101472.94;5079020;28;20037;-55
2022/07/20 07:06:32;;;;;;;25.33;11.63;;;;;;;26.91;100.00;101472.16;5073977;28;20076;-51
2022/07/20 07:08:58;;;;;;;28.60;12.00;;;;;;;26.87;100.00;101479.34;5082925;28;20029;-55
2022/07/20 07:11:25;;;;;;;27.87;12.20;;;;;;;26.87;100.00;101492.22;5072473;28;20039;-54
2022/07/20 07:13:51;;;;;;;30.43;12.47;;;;;;;26.95;100.00;101486.09;5077098;28;20029;-52
2022/07/20 07:16:17;;;;;;;;;;;;;;;27.00;100.00;101491.53;5084138;28;20049;-56
2022/07/20 07:18:42;;;;;;;26.87;11.47;;;;;;;26.95;100.00;101490.78;5077055;28;19919;-56
2022/07/20 07:21:08;;;;;;;;;;;;;;;27.19;100.00;101485.28;5071869;28;20037;-55
2022/07/20 07:23:33;;;;;;;24.03;10.13;;;;;;;26.84;100.00;101490.84;5074817;28;19917;-53
2022/07/20 07:25:59;;;;;;;;;;;;;;;27.22;100.00;101475.63;5072313;28;20052;-54
2022/07/20 07:28:24;;;;;;;23.67;10.53;;;;;;;27.06;100.00;101486.78;5074221;28;19913;-52
2022/07/20 07:30:50;;;;;;;;;;;;;;;27.42;100.00;101483.63;5074008;28;20032;-55
2022/07/20 07:33:16;;;;;;;30.30;10.80;;;;;;;27.39;100.00;101477.88;5076504;28;19939;-56
2022/07/20 07:35:42;;;;;;;25.63;9.87;;;;;;;27.42;100.00;101491.03;5070424;28;20039;-56
2022/07/20 07:38:08;;;;;;;27.13;9.57;;;;;;;27.30;100.00;101494.19;5073155;28;20037;-54
2022/07/20 07:40:34;;;;;;;25.83;9.30;;;;;;;27.45;100.00;101495.94;5074376;28;20091;-53
2022/07/20 07:43:00;;;;;;;;;;;;;;;27.39;100.00;101524.56;5068345;28;20036;-56
2022/07/20 07:45:25;;;;;;;19.60;9.80;;;;;;;27.46;100.00;101527.81;5075571;28;19913;-53
2022/07/20 07:47:51;;;;;;;;;;;;;;;27.54;100.00;101518.94;5068681;28;20044;-55
2022/07/20 07:50:16;;;;;;;23.93;10.30;;;;;;;27.55;100.00;101520.56;5066141;28;19916;-55
2022/07/20 07:52:42;;;;;;;;;;;;;;;27.62;100.00;101509.22;5074370;28;20036;-56
2022/07/20 07:55:07;;;;;;;20.90;9.43;;;;;;;27.76;100.00;101523.84;5070129;28;19915;-53
2022/07/20 07:57:33;;;;;;;20.43;8.90;;;;;;;27.78;100.00;101531.78;5067974;28;20037;-58
2022/07/20 07:59:59;;;;;;;;;;;;;;;27.97;100.00;101534.53;5069702;28;20095;-56
2022/07/20 08:02:24;;;;;;;17.47;9.30;;;;;;;28.02;100.00;101544.66;5067933;28;19920;-56
2022/07/20 08:04:49;;;;;;;;;;;;;;;28.06;100.00;101551.19;5073419;28;20111;-55
2022/07/20 08:07:15;;;;;;;27.50;9.77;;;;;;;27.61;100.00;101573.50;5080563;28;20343;-54
2022/07/20 08:09:41;;;;;;;20.73;9.20;;;;;;;27.51;100.00;101571.72;5072148;28;20044;-56
2022/07/20 08:12:06;;;;;;;;;;;;;;;27.54;100.00;101578.53;5072256;28;20037;-58
2022/07/20 08:14:32;;;;;;;21.67;8.57;;;;;;;27.58;100.00;101574.91;5071416;28;19912;-56
2022/07/20 08:16:57;;;;;;;;;;;;;;;27.66;100.00;101556.13;5076354;28;20124;-55
2022/07/20 08:19:23;;;;;;;17.90;7.77;;;;;;;28.27;100.00;101540.75;5071249;28;19913;-55
2022/07/20 08:21:48;;;;;;;;;;;;;;;28.17;100.00;101557.38;5065987;28;20047;-56
2022/07/20 08:24:16;;;;;;;16.37;7.50;;;;;;;28.20;100.00;101559.53;5067627;28;19915;-56
2022/07/20 08:26:42;;;;;;;18.67;8.17;;;;;;;28.18;100.00;101559.00;5066746;28;20108;-57
2022/07/20 08:29:08;;;;;;;14.63;7.33;;;;;;;28.16;100.00;101545.56;5069813;28;20055;-56
2022/07/20 08:31:34;;;;;;;17.17;8.40;;;;;;;28.41;100.00;101550.97;5076415;28;20395;-56
2022/07/20 08:34:00;;;;;;;16.17;7.73;;;;;;;28.17;100.00;101540.88;5076970;28;20032;-56
2022/07/20 08:36:26;;;;;;;48.33;26.13;;;;;;;28.70;100.00;101545.25;5074656;28;20051;-54
2022/07/20 08:38:51;;;;;;;29.73;15.50;;;;;;;28.82;100.00;101552.22;5079906;28;20032;-55
2022/07/20 08:41:17;;;;;;;26.43;14.13;;;;;;;28.58;100.00;101544.88;5083465;28;20101;-54
2022/07/20 08:43:43;;;;;;;19.80;10.70;;;;;;;28.91;100.00;101553.97;5080582;28;20071;-57
2022/07/20 08:46:08;;;;;;;15.80;8.67;;;;;;;28.53;100.00;101548.56;5080553;28;20062;-54
2022/07/20 08:48:35;;;;;;;30.23;17.43;;;;;;;28.93;100.00;101539.91;5073369;28;20025;-55
2022/07/20 08:51:01;;;;;;;21.97;9.77;;;;;;;28.53;100.00;101544.97;5076925;28;20032;-56
2022/07/20 08:53:27;;;;;;;25.20;12.80;;;;;;;28.60;100.00;101543.47;5080221;28;20033;-55
2022/07/20 08:55:52;;;;;;;23.17;9.57;;;;;;;29.12;100.00;101558.28;5081672;28;20049;-56
2022/07/20 08:58:18;;;;;;;25.03;9.77;;;;;;;29.43;100.00;101558.53;5080605;28;20094;-56
2022/07/20 09:00:44;;;;;;;19.47;8.73;;;;;;;29.37;100.00;101558.91;5074573;28;20029;-56
2022/07/20 09:03:11;;;;;;;21.60;10.33;;;;;;;29.42;100.00;101567.09;5076229;28;20033;-56
2022/07/20 09:05:39;;;;;;;23.90;9.60;;;;;;;29.22;100.00;101565.53;5075235;28;20088;-57
2022/07/20 09:08:06;;;;;;;13.67;8.00;;;;;;;28.92;100.00;101563.06;5075478;28;20045;-56
2022/07/20 09:10:34;;;;;;;18.00;8.10;;;;;;;29.05;100.00;101558.69;5082892;28;20040;-54
2022/07/20 09:13:02;;;;;;;22.37;8.60;;;;;;;29.37;100.00;101569.91;5079388;28;20040;-56
2022/07/20 09:15:41;;;;;;;27.30;9.57;;;;;;;29.56;100.00;101567.06;5076991;28;20064;-54
2022/07/20 09:18:15;;;;;;;19.57;8.63;;;;;;;29.50;100.00;101560.03;5081104;28;20029;-55
2022/07/20 09:20:46;;;;;;;13.53;8.13;;;;;;;29.40;100.00;101552.78;5075147;28;20097;-56
2022/07/20 09:23:15;;;;;;;19.17;8.30;;;;;;;29.76;100.00;101549.31;5077495;28;20044;-56
2022/07/20 09:25:53;;;;;;;17.33;9.30;;;;;;;30.13;100.00;101552.09;5081122;28;20093;-55
2022/07/20 09:28:20;;;;;;;19.07;8.63;;;;;;;30.39;100.00;101560.53;5082678;28;20069;-57
2022/07/20 09:30:56;;;;;;;19.42;9.10;;;;;;;29.89;100.00;101564.97;5082624;28;20093;-55
2022/07/20 09:33:27;;;;;;;16.85;9.02;;;;;;;30.23;100.00;101573.09;5077990;28;20067;-56
2022/07/20 09:35:53;;;;;;;20.73;8.88;;;;;;;30.19;100.00;101592.19;5073333;28;20039;-54
2022/07/20 09:38:18;;;;;;;18.15;8.10;;;;;;;30.29;100.00;101604.94;5068336;28;20037;-53
2022/07/20 09:40:46;;;;;;;19.92;8.93;;;;;;;30.32;100.00;101616.13;5076861;28;20076;-55
2022/07/20 09:43:26;;;;;;;25.42;9.20;;;;;;;30.56;100.00;101616.97;5078383;28;20064;-56
2022/07/20 09:45:53;;;;;;;21.35;9.25;;;;;;;31.03;100.00;101609.19;5079383;28;20025;-52
2022/07/20 09:48:22;;;;;;;51.50;28.13;;;;;;;31.82;100.00;101632.75;5070148;28;20037;-54
2022/07/20 09:50:47;;;;;;;14.20;8.52;;;;;;;31.53;100.00;101634.13;5079409;28;20029;-54
2022/07/20 09:53:14;;;;;;;25.40;12.68;;;;;;;31.27;100.00;101651.41;5082097;28;20113;-57
2022/07/20 09:55:41;;;;;;;54.60;32.40;;;;;;;31.70;100.00;101650.75;5075409;28;20033;-55
2022/07/20 09:58:08;;;;;;;19.90;10.50;;;;;;;31.71;100.00;101657.91;5082389;28;20096;-53
2022/07/20 10:00:35;;;;;;;25.17;12.85;;;;;;;31.83;100.00;101642.69;5078883;28;20036;-56
2022/07/20 10:03:03;;;;;;;22.98;11.27;;;;;;;32.17;100.00;101661.28;5076583;28;20137;-56
2022/07/20 10:05:32;;;;;;;33.25;18.25;;;;;;;32.44;100.00;101648.28;5084154;28;20028;-58
2022/07/20 10:08:06;;;;;;;33.40;19.30;;;;;;;33.18;99.54;101637.25;5083489;28;20033;-58
2022/07/20 10:10:32;;;;;;;23.98;14.35;;;;;;;34.09;92.14;101623.44;5077305;28;20057;-55
2022/07/20 10:12:58;;;;;;;14.80;7.97;;;;;;;34.14;88.85;101609.34;5082287;28;20029;-55
2022/07/20 10:15:55;;;;;;;19.52;9.95;;;;;;;34.88;84.97;101600.50;5083976;28;20041;-56
2022/07/20 10:18:22;;;;;;;15.50;8.40;;;;;;;35.47;80.53;101631.81;5083681;28;20119;-57
2022/07/20 10:20:49;;;;;;;15.85;9.80;;;;;;;36.24;76.54;101634.97;5082458;28;20033;-56
2022/07/20 10:23:15;;;;;;;10.07;6.68;;;;;;;35.72;75.53;101627.06;5088129;28;20032;-58
2022/07/20 10:25:44;;;;;;;17.75;7.85;;;;;;;35.68;75.16;101625.31;5080430;28;20063;-55
2022/07/20 10:28:37;;;;;;;10.55;6.22;;;;;;;35.71;72.59;101646.88;5080093;28;20053;-56
2022/07/20 10:31:16;;;;;;;14.32;6.15;;;;;;;35.42;73.39;101645.94;5075031;28;20048;-55
2022/07/20 10:33:43;;;;;;;7.82;4.82;;;;;;;36.22;67.55;101637.31;5071335;28;20063;-57
2022/07/20 10:39:45;;;;;;;12.10;6.45;;;;;;;36.28;67.52;101667.28;5078287;28;20062;-56
2022/07/20 10:42:24;;;;;;;10.18;5.60;;;;;;;35.97;64.41;101676.28;5075762;28;20044;-56
2022/07/20 10:44:51;;;;;;;12.40;5.35;;;;;;;35.35;67.35;101670.75;5078752;28;20084;-56
2022/07/20 10:47:40;;;;;;;10.63;4.68;;;;;;;35.46;67.39;101666.34;5073661;28;20032;-57
2022/07/20 10:50:06;;;;;;;11.95;5.28;;;;;;;35.30;67.23;101661.47;5079644;28;20040;-55
2022/07/20 10:52:34;;;;;;;14.75;6.30;;;;;;;36.34;65.52;101662.28;5080515;28;20470;-52
2022/07/20 10:55:00;;;;;;;10.02;5.60;;;;;;;36.17;62.73;101646.69;5078992;28;20055;-55
2022/07/20 10:57:26;;;;;;;12.52;6.18;;;;;;;37.21;60.99;101655.47;5082412;28;20025;-57
2022/07/20 11:00:10;;;;;;;12.88;5.95;;;;;;;37.84;58.65;101651.81;5076839;28;20104;-56
2022/07/20 11:02:36;;;;;;;13.25;6.03;;;;;;;36.62;62.56;101644.78;5078801;28;20055;-56
2022/07/20 11:05:04;;;;;;;10.63;6.15;;;;;;;35.84;65.94;101644.88;5080602;28;20040;-56
2022/07/20 11:07:35;;;;;;;12.60;5.78;;;;;;;34.91;70.54;101632.31;5077165;28;20029;-53
2022/07/20 11:10:19;;;;;;;12.32;5.07;;;;;;;35.00;67.62;101650.53;5078859;28;20048;-57
2022/07/20 11:13:06;;;;;;;11.60;4.65;;;;;;;34.84;67.02;101649.56;5073606;28;20079;-55
2022/07/20 11:15:45;;;;;;;17.05;5.00;;;;;;;36.19;64.13;101637.97;5079282;28;20040;-56
2022/07/20 11:18:15;;;;;;;12.02;5.38;;;;;;;35.92;65.27;101629.22;5075121;28;20097;-58
2022/07/20 11:20:48;;;;;;;9.48;5.07;;;;;;;36.62;59.66;101628.06;5073982;28;20032;-56
2022/07/20 11:23:15;;;;;;;8.10;4.78;;;;;;;36.57;60.45;101633.91;5078479;28;20032;-55
2022/07/20 11:25:49;;;;;;;9.35;5.28;;;;;;;36.53;60.73;101642.16;5077585;28;20132;-56